UDYZ/EVN METAR and TAF weather

Enter ICAO airport designator
Station Type Date Time Source
UDYZ METAR 2022/06/28 15:00 UTC NOAA

UDYZ 281500Z 24004KT 9999 FEW043 33/04 Q1006 R09/010070 NOSIG


Station Type Date Time Source
UDYZ Decoded METAR 2022/06/28 15:00 UTC NOAA

Station name not available
Jun 28, 2022 - 11:00 AM EDT / 2022.06.28 1500 UTC
Wind: from the WSW (240 degrees) at 5 MPH (4 KT):0
Visibility: greater than 7 mile(s):0
Sky conditions: mostly clear
Temperature: 91 F (33 C)
Dew Point: 39 F (4 C)
Relative Humidity: 16%
Pressure (altimeter): 29.71 in. Hg (1006 hPa)
ob: UDYZ 281500Z 24004KT 9999 FEW043 33/04 Q1006 R09/010070 NOSIG
cycle: 15

Station Type Date Time Source
UDYZ TAF 2022/06/28 12:00 UTC NOAA

TAF UDYZ 281100Z 2812/2912 04006KT 9999 FEW040
TEMPO 2812/2821 VRB20G30KT FEW040CB

Example: see airport list